createdAt,value
2022-11-24T00:01:25.371Z,11.15
2022-11-24T00:03:58.288Z,11.14
2022-11-24T00:06:26.187Z,11.06
2022-11-24T00:08:53.986Z,10.99
2022-11-24T00:11:29.751Z,10.97
2022-11-24T00:13:58.322Z,10.85
2022-11-24T00:16:31.116Z,10.79
2022-11-24T00:19:00.416Z,10.67
2022-11-24T00:21:31.979Z,10.64
2022-11-24T00:24:00.458Z,10.60
2022-11-24T00:26:30.669Z,10.56
2022-11-24T00:29:01.863Z,10.53
2022-11-24T00:31:35.348Z,10.51
2022-11-24T00:34:05.430Z,10.46
2022-11-24T00:36:35.979Z,10.44
2022-11-24T00:39:06.446Z,10.42
2022-11-24T00:41:34.046Z,10.41
2022-11-24T00:44:01.453Z,10.40
2022-11-24T00:46:28.966Z,10.33
2022-11-24T00:48:57.795Z,10.32
2022-11-24T00:51:28.818Z,10.30
2022-11-24T00:53:57.914Z,10.29
2022-11-24T00:56:26.179Z,10.28
2022-11-24T00:58:53.999Z,10.20
2022-11-24T01:01:24.466Z,10.22
2022-11-24T01:03:52.381Z,10.21
2022-11-24T01:06:22.000Z,10.18
2022-11-24T01:08:49.486Z,10.12
2022-11-24T01:11:28.491Z,10.04
2022-11-24T01:13:58.657Z,9.99
2022-11-24T01:16:33.843Z,9.95
2022-11-24T01:19:01.745Z,9.99
2022-11-24T01:21:30.029Z,9.95
2022-11-24T01:23:57.761Z,9.88
2022-11-24T01:26:25.358Z,9.85
2022-11-24T01:28:57.780Z,9.81
2022-11-24T01:31:27.297Z,9.81
2022-11-24T01:33:55.666Z,9.74
2022-11-24T01:36:23.146Z,9.70
2022-11-24T01:38:50.742Z,9.64
2022-11-24T01:41:20.831Z,9.63
2022-11-24T01:43:51.163Z,9.56
2022-11-24T01:47:15.560Z,9.54
2022-11-24T01:49:43.106Z,9.49
2022-11-24T01:52:29.312Z,9.48
2022-11-24T01:55:04.079Z,9.47
2022-11-24T01:57:42.354Z,9.46
2022-11-24T02:00:13.241Z,9.40
2022-11-24T02:02:42.208Z,9.38
2022-11-24T02:05:33.458Z,9.31
2022-11-24T02:08:02.145Z,9.26
2022-11-24T02:10:29.984Z,9.25
2022-11-24T02:13:03.771Z,9.18
2022-11-24T02:15:33.553Z,9.19
2022-11-24T02:18:00.648Z,9.16
2022-11-24T02:20:27.975Z,9.17
2022-11-24T02:23:03.827Z,9.17
2022-11-24T02:25:36.923Z,9.07
2022-11-24T02:28:10.620Z,9.04
2022-11-24T02:30:41.172Z,9.00
2022-11-24T02:33:12.080Z,8.96
2022-11-24T02:35:40.800Z,8.92
2022-11-24T02:38:12.601Z,8.90
2022-11-24T02:40:43.634Z,8.85
2022-11-24T02:43:22.344Z,8.80
2022-11-24T02:45:51.490Z,8.81
2022-11-24T02:48:18.765Z,8.82
2022-11-24T02:50:46.195Z,8.85
2022-11-24T02:53:13.478Z,8.89
2022-11-24T02:55:40.903Z,8.92
2022-11-24T02:58:07.937Z,8.88
2022-11-24T03:00:36.558Z,8.90
2022-11-24T03:03:04.291Z,8.89
2022-11-24T03:05:33.560Z,8.87
2022-11-24T03:08:00.555Z,8.85
2022-11-24T03:10:29.303Z,8.80
2022-11-24T03:12:56.716Z,8.71
2022-11-24T03:15:26.413Z,8.63
2022-11-24T03:17:56.099Z,8.47
2022-11-24T03:20:23.989Z,8.44
2022-11-24T03:22:53.503Z,8.33
2022-11-24T03:25:21.179Z,8.32
2022-11-24T03:27:48.220Z,8.23
2022-11-24T03:30:17.253Z,8.19
2022-11-24T03:32:44.346Z,8.16
2022-11-24T03:35:13.427Z,8.17
2022-11-24T03:37:40.326Z,8.11
2022-11-24T03:40:08.475Z,8.15
2022-11-24T03:42:35.676Z,8.16
2022-11-24T03:45:29.923Z,8.17
2022-11-24T03:47:52.399Z,8.18
2022-11-24T03:50:19.756Z,8.16
2022-11-24T03:52:46.668Z,8.15
2022-11-24T03:55:14.216Z,8.13
2022-11-24T03:57:42.673Z,8.12
2022-11-24T04:00:11.981Z,8.13
2022-11-24T04:02:42.549Z,8.08
2022-11-24T04:05:13.209Z,8.02
2022-11-24T04:07:40.301Z,8.05
2022-11-24T04:10:09.040Z,7.97
2022-11-24T04:12:45.228Z,7.94
2022-11-24T04:15:21.177Z,7.93
2022-11-24T04:17:49.440Z,7.88
2022-11-24T04:20:17.470Z,7.77
2022-11-24T04:22:44.657Z,7.64
2022-11-24T04:25:17.561Z,7.45
2022-11-24T04:27:46.044Z,7.32
2022-11-24T04:30:13.888Z,7.20
2022-11-24T04:32:40.901Z,7.12
2022-11-24T04:35:08.803Z,7.07
2022-11-24T04:37:35.870Z,6.93
2022-11-24T04:40:04.401Z,6.85
2022-11-24T04:42:31.528Z,6.74
2022-11-24T04:44:59.005Z,6.69
2022-11-24T04:47:26.634Z,6.65
2022-11-24T04:49:54.959Z,6.66
2022-11-24T04:52:23.324Z,6.71
2022-11-24T04:54:51.480Z,6.70
2022-11-24T04:57:21.953Z,6.59
2022-11-24T04:59:50.069Z,6.49
2022-11-24T05:02:17.489Z,6.45
2022-11-24T05:04:45.653Z,6.46
2022-11-24T05:07:20.701Z,6.49
2022-11-24T05:10:07.560Z,6.50
2022-11-24T05:12:58.640Z,6.49
2022-11-24T05:15:26.638Z,6.58
2022-11-24T05:17:57.833Z,6.53
2022-11-24T05:20:26.257Z,6.60
2022-11-24T05:22:53.462Z,6.61
2022-11-24T05:25:21.286Z,6.61
2022-11-24T05:27:48.237Z,6.64
2022-11-24T05:30:16.742Z,6.64
2022-11-24T05:32:43.909Z,6.57
2022-11-24T05:35:12.179Z,6.62
2022-11-24T05:37:39.838Z,6.62
2022-11-24T05:40:22.423Z,6.62
2022-11-24T05:42:53.246Z,6.55
2022-11-24T05:45:22.273Z,6.61
2022-11-24T05:47:51.879Z,6.60
2022-11-24T05:53:33.398Z,6.59
2022-11-24T05:56:09.388Z,6.64
2022-11-24T05:58:36.418Z,6.64
2022-11-24T06:01:06.855Z,6.61
2022-11-24T06:03:59.668Z,6.58
2022-11-24T06:06:30.813Z,6.58
2022-11-24T06:08:58.981Z,6.58
2022-11-24T06:11:49.737Z,6.60
2022-11-24T06:14:16.676Z,6.55
2022-11-24T06:16:44.135Z,6.57
2022-11-24T06:19:11.779Z,6.52
2022-11-24T06:21:39.236Z,6.53
2022-11-24T06:24:06.619Z,6.50
2022-11-24T06:26:33.983Z,6.54
2022-11-24T06:29:01.432Z,6.48
2022-11-24T06:31:29.878Z,6.48
2022-11-24T06:34:11.850Z,6.34
2022-11-24T06:36:40.790Z,6.19
2022-11-24T06:39:08.439Z,6.16
2022-11-24T06:41:38.783Z,6.15
2022-11-24T06:44:19.673Z,6.14
2022-11-24T06:46:47.435Z,6.03
2022-11-24T06:49:14.522Z,6.07
2022-11-24T06:51:45.094Z,6.10
2022-11-24T06:57:03.214Z,5.95
2022-11-24T06:59:32.551Z,5.91
2022-11-24T07:02:02.141Z,5.90
2022-11-24T07:04:32.666Z,5.88
2022-11-24T07:07:15.321Z,5.92
2022-11-24T07:09:45.004Z,5.97
2022-11-24T07:12:11.804Z,6.05
2022-11-24T07:14:39.113Z,6.13
2022-11-24T07:17:06.899Z,6.12
2022-11-24T07:19:34.365Z,6.19
2022-11-24T07:22:01.514Z,6.22
2022-11-24T07:24:28.899Z,6.26
2022-11-24T07:26:56.271Z,6.23
2022-11-24T07:29:23.653Z,6.27
2022-11-24T07:31:50.722Z,6.29
2022-11-24T07:34:18.034Z,6.28
2022-11-24T07:36:45.267Z,6.32
2022-11-24T07:39:12.690Z,6.37
2022-11-24T07:41:39.815Z,6.35
2022-11-24T07:44:07.353Z,6.18
2022-11-24T07:46:34.395Z,6.08
2022-11-24T07:49:01.823Z,6.07
2022-11-24T07:51:28.831Z,6.13
2022-11-24T07:54:07.305Z,6.09
2022-11-24T07:56:35.653Z,6.08
2022-11-24T07:59:04.406Z,6.05
2022-11-24T08:01:34.352Z,6.15
2022-11-24T08:04:03.776Z,6.12
2022-11-24T08:06:40.849Z,6.02
2022-11-24T08:09:15.126Z,6.02
2022-11-24T08:11:42.333Z,5.93
2022-11-24T08:14:09.657Z,5.99
2022-11-24T08:16:36.751Z,5.93
2022-11-24T08:19:04.231Z,5.94
2022-11-24T08:21:52.870Z,6.07
2022-11-24T08:27:31.509Z,6.25
2022-11-24T08:29:59.756Z,6.31
2022-11-24T08:32:27.377Z,6.31
2022-11-24T08:34:59.569Z,6.35
2022-11-24T08:37:32.365Z,6.22
2022-11-24T08:40:03.251Z,6.23
2022-11-24T08:42:30.831Z,6.19
2022-11-24T08:44:59.196Z,6.24
2022-11-24T08:47:26.657Z,6.27
2022-11-24T08:49:53.746Z,6.22
2022-11-24T08:52:29.231Z,6.20
2022-11-24T08:55:17.299Z,6.28
2022-11-24T08:57:44.761Z,6.28
2022-11-24T09:00:14.200Z,6.32
2022-11-24T09:02:43.031Z,6.40
2022-11-24T09:05:43.646Z,6.35
2022-11-24T09:08:01.146Z,6.33
2022-11-24T09:10:28.808Z,6.34
2022-11-24T09:12:57.795Z,6.42
2022-11-24T09:18:25.243Z,6.46
2022-11-24T09:20:58.627Z,6.49
2022-11-24T09:23:32.419Z,6.55
2022-11-24T09:26:10.795Z,6.65
2022-11-24T09:28:38.207Z,6.70
2022-11-24T09:31:49.682Z,6.74
2022-11-24T09:34:20.105Z,6.73
2022-11-24T09:36:49.584Z,6.86
2022-11-24T09:42:14.529Z,7.07
2022-11-24T09:44:55.510Z,7.13
2022-11-24T09:47:40.874Z,7.20
2022-11-24T09:50:12.409Z,7.26
2022-11-24T09:53:08.285Z,7.21
2022-11-24T09:55:53.938Z,7.29
2022-11-24T09:58:33.063Z,7.34
2022-11-24T10:01:00.614Z,7.40
2022-11-24T10:03:43.769Z,7.56
2022-11-24T10:06:31.912Z,7.63
2022-11-24T10:09:21.249Z,7.68
2022-11-24T10:12:16.268Z,7.70
2022-11-24T10:15:00.419Z,7.66
2022-11-24T10:17:49.957Z,7.62
2022-11-24T10:21:00.596Z,7.58
2022-11-24T10:24:04.827Z,7.61
2022-11-24T10:26:47.041Z,7.60
2022-11-24T10:29:30.597Z,7.52
2022-11-24T10:35:28.410Z,7.34
2022-11-24T10:38:25.414Z,7.41
2022-11-24T10:41:06.193Z,7.37
2022-11-24T10:46:29.171Z,7.29
2022-11-24T10:49:04.626Z,7.25
2022-11-24T10:51:32.969Z,7.27
2022-11-24T10:54:18.817Z,7.19
2022-11-24T10:56:51.880Z,7.24
2022-11-24T10:59:43.615Z,7.23
2022-11-24T11:02:32.536Z,7.22
2022-11-24T11:05:28.803Z,7.17
2022-11-24T11:08:14.416Z,7.13
2022-11-24T11:10:43.763Z,6.95
2022-11-24T11:13:30.204Z,6.92
2022-11-24T11:16:09.937Z,6.66
2022-11-24T11:18:42.563Z,6.47
2022-11-24T11:21:34.476Z,6.31
2022-11-24T11:24:13.171Z,6.17
2022-11-24T11:26:42.529Z,6.11
2022-11-24T11:34:55.138Z,6.07
2022-11-24T11:37:30.061Z,6.11
2022-11-24T11:40:04.136Z,6.15
2022-11-24T11:43:03.210Z,6.17
2022-11-24T11:45:49.559Z,6.17
2022-11-24T11:48:42.402Z,6.28
2022-11-24T11:51:25.896Z,6.27
2022-11-24T11:54:27.770Z,6.27
2022-11-24T11:57:12.127Z,6.32
2022-11-24T11:59:48.734Z,6.31
2022-11-24T12:02:53.840Z,6.21
2022-11-24T12:05:31.755Z,6.18
2022-11-24T12:08:28.864Z,6.22
2022-11-24T12:11:15.549Z,6.28
2022-11-24T12:14:08.420Z,6.29
2022-11-24T12:17:03.283Z,6.28
2022-11-24T12:19:46.826Z,6.25
2022-11-24T12:22:28.155Z,6.18
2022-11-24T12:25:14.734Z,6.14
2022-11-24T12:28:32.261Z,6.15
2022-11-24T12:31:08.193Z,6.09
2022-11-24T12:34:01.474Z,6.10
2022-11-24T12:36:56.391Z,5.90
2022-11-24T12:39:26.833Z,5.74
2022-11-24T12:42:22.262Z,5.53
2022-11-24T12:45:06.377Z,5.51
2022-11-24T12:47:51.818Z,5.53
2022-11-24T12:50:23.858Z,5.55
2022-11-24T12:53:04.461Z,5.63
2022-11-24T12:55:34.151Z,5.62
2022-11-24T12:58:17.367Z,5.56
2022-11-24T13:01:22.487Z,5.53
2022-11-24T13:04:07.237Z,5.62
2022-11-24T13:06:44.405Z,5.69
2022-11-24T13:09:20.589Z,5.67
2022-11-24T13:12:28.383Z,5.67
2022-11-24T13:14:55.520Z,5.61
2022-11-24T13:17:37.128Z,5.61
2022-11-24T13:20:38.453Z,5.62
2022-11-24T13:23:22.180Z,5.61
2022-11-24T13:26:38.888Z,5.63
2022-11-24T13:29:30.860Z,5.64
2022-11-24T13:32:01.468Z,5.65
2022-11-24T13:34:50.362Z,5.64
2022-11-24T13:37:32.056Z,5.51
2022-11-24T13:40:23.488Z,5.39
2022-11-24T13:42:56.436Z,5.46
2022-11-24T13:45:59.241Z,5.44
2022-11-24T13:48:29.360Z,5.43
2022-11-24T13:51:02.034Z,5.40
2022-11-24T13:56:18.631Z,5.38
2022-11-24T13:59:04.518Z,5.35
2022-11-24T14:01:36.995Z,5.30
2022-11-24T14:04:35.863Z,5.26
2022-11-24T14:07:12.526Z,5.23
2022-11-24T14:09:45.822Z,5.22
2022-11-24T14:12:18.084Z,5.20
2022-11-24T14:14:52.787Z,5.18
2022-11-24T14:17:30.189Z,5.13
2022-11-24T14:20:24.277Z,5.18
2022-11-24T14:22:56.446Z,5.14
2022-11-24T14:25:32.327Z,5.12
2022-11-24T14:28:00.676Z,5.09
2022-11-24T14:30:27.923Z,5.07
2022-11-24T14:33:11.384Z,5.07
2022-11-24T14:35:51.462Z,5.02
2022-11-24T14:38:19.144Z,5.07
2022-11-24T14:40:55.685Z,5.05
2022-11-24T14:46:21.091Z,5.09
2022-11-24T14:49:02.233Z,5.10
2022-11-24T14:51:45.013Z,5.14
2022-11-24T14:54:19.829Z,5.13
2022-11-24T14:57:22.851Z,5.12
2022-11-24T15:00:22.709Z,5.13
2022-11-24T15:02:56.302Z,5.05
2022-11-24T15:05:26.005Z,5.08
2022-11-24T15:08:14.052Z,5.00
2022-11-24T15:10:51.508Z,5.07
2022-11-24T15:13:24.693Z,5.01
2022-11-24T15:16:03.362Z,5.02
2022-11-24T15:18:37.841Z,4.91
2022-11-24T15:21:05.584Z,4.96
2022-11-24T15:23:35.194Z,4.99
2022-11-24T15:26:05.839Z,4.97
2022-11-24T15:28:33.525Z,4.96
2022-11-24T15:31:03.957Z,4.88
2022-11-24T15:33:40.240Z,4.97
2022-11-24T15:36:14.553Z,4.90
2022-11-24T15:38:46.589Z,4.92
2022-11-24T15:41:22.776Z,4.94
2022-11-24T15:43:51.600Z,4.94
2022-11-24T15:46:24.978Z,4.86
2022-11-24T15:48:54.885Z,4.81
2022-11-24T15:51:26.778Z,4.80
2022-11-24T15:54:01.162Z,4.77
2022-11-24T15:56:46.228Z,4.68
2022-11-24T15:59:20.732Z,4.65
2022-11-24T16:01:50.076Z,4.67
2022-11-24T16:04:17.625Z,4.61
2022-11-24T16:06:44.839Z,4.65
2022-11-24T16:09:17.318Z,4.66
2022-11-24T16:11:44.629Z,4.59
2022-11-24T16:14:12.722Z,4.68
2022-11-24T16:16:40.939Z,4.65
2022-11-24T16:19:11.472Z,4.66
2022-11-24T16:21:40.756Z,4.49
2022-11-24T16:24:08.884Z,4.45
2022-11-24T16:26:35.938Z,4.44
2022-11-24T16:29:05.554Z,4.48
2022-11-24T16:31:33.087Z,4.46
2022-11-24T16:34:00.402Z,4.43
2022-11-24T16:36:28.930Z,4.44
2022-11-24T16:38:59.740Z,4.48
2022-11-24T16:41:28.767Z,4.43
2022-11-24T16:43:56.574Z,4.42
2022-11-24T16:46:25.151Z,4.36
2022-11-24T16:49:08.306Z,4.33
2022-11-24T16:51:37.426Z,4.21
2022-11-24T16:54:04.959Z,4.28
2022-11-24T16:56:34.489Z,4.27
2022-11-24T16:59:10.625Z,4.25
2022-11-24T17:01:43.168Z,4.24
2022-11-24T17:04:33.558Z,4.27
2022-11-24T17:07:02.938Z,4.29
2022-11-24T17:09:30.652Z,4.28
2022-11-24T17:11:57.923Z,4.32
2022-11-24T17:14:26.051Z,4.27
2022-11-24T17:16:53.328Z,4.29
2022-11-24T17:19:20.973Z,4.32
2022-11-24T17:21:48.273Z,4.29
2022-11-24T17:24:19.586Z,4.30
2022-11-24T17:26:51.577Z,4.36
2022-11-24T17:29:19.378Z,4.38
2022-11-24T17:31:46.783Z,4.35
2022-11-24T17:34:20.137Z,4.29
2022-11-24T17:36:47.386Z,4.22
2022-11-24T17:39:19.136Z,4.32
2022-11-24T17:41:53.382Z,4.36
2022-11-24T17:48:07.906Z,4.36
2022-11-24T17:50:35.039Z,4.45
2022-11-24T17:53:08.832Z,4.53
2022-11-24T17:55:36.052Z,4.46
2022-11-24T17:58:05.677Z,4.52
2022-11-24T18:00:32.766Z,4.50
2022-11-24T18:03:01.102Z,4.50
2022-11-24T18:05:28.237Z,4.48
2022-11-24T18:07:58.104Z,4.46
2022-11-24T18:10:25.301Z,4.45
2022-11-24T18:12:52.758Z,4.38
2022-11-24T18:15:19.797Z,4.35
2022-11-24T18:17:47.267Z,4.24
2022-11-24T18:20:14.398Z,4.16
2022-11-24T18:23:11.667Z,4.19
2022-11-24T18:28:32.644Z,4.13
2022-11-24T18:31:05.658Z,4.09
2022-11-24T18:33:40.354Z,4.15
2022-11-24T18:36:12.001Z,4.18
2022-11-24T18:38:40.151Z,4.19
2022-11-24T18:41:09.289Z,4.21
2022-11-24T18:43:43.265Z,4.15
2022-11-24T18:46:16.123Z,4.15
2022-11-24T18:48:45.559Z,4.13
2022-11-24T18:51:15.890Z,4.18
2022-11-24T18:53:46.143Z,4.23
2022-11-24T18:56:14.767Z,4.25
2022-11-24T18:58:42.632Z,4.23
2022-11-24T19:01:16.057Z,4.24
2022-11-24T19:03:52.958Z,4.31
2022-11-24T19:06:22.057Z,4.24
2022-11-24T19:08:53.491Z,4.30
2022-11-24T19:11:34.071Z,4.34
2022-11-24T19:14:05.886Z,4.38
2022-11-24T19:16:34.004Z,4.34
2022-11-24T19:19:02.689Z,4.39
2022-11-24T19:21:31.634Z,4.45
2022-11-24T19:24:04.534Z,4.45
2022-11-24T19:26:35.326Z,4.47
2022-11-24T19:29:03.326Z,4.45
2022-11-24T19:31:30.920Z,4.39
2022-11-24T19:34:07.426Z,4.38
2022-11-24T19:36:36.078Z,4.36
2022-11-24T19:39:10.703Z,4.29
2022-11-24T19:41:39.186Z,4.30
2022-11-24T19:44:09.284Z,4.30
2022-11-24T19:46:38.833Z,4.37
2022-11-24T19:49:08.287Z,4.39
2022-11-24T19:51:50.232Z,4.38
2022-11-24T19:54:18.410Z,4.37
2022-11-24T19:56:46.332Z,4.42
2022-11-24T19:59:17.263Z,4.41
2022-11-24T20:01:44.636Z,4.42
2022-11-24T20:04:15.166Z,4.39
2022-11-24T20:06:47.251Z,4.37
2022-11-24T20:09:17.036Z,4.40
2022-11-24T20:11:44.674Z,4.31
2022-11-24T20:14:13.667Z,4.31
2022-11-24T20:16:41.589Z,4.30
2022-11-24T20:19:15.728Z,4.30
2022-11-24T20:22:03.318Z,4.27
2022-11-24T20:24:33.812Z,4.24
2022-11-24T20:27:01.390Z,4.16
2022-11-24T20:29:29.307Z,4.14
2022-11-24T20:31:56.798Z,4.15
2022-11-24T20:34:26.595Z,4.17
2022-11-24T20:36:55.315Z,4.10
2022-11-24T20:39:29.067Z,4.14
2022-11-24T20:41:56.636Z,4.18
2022-11-24T20:44:27.807Z,4.16
2022-11-24T20:46:56.970Z,4.17
2022-11-24T20:52:23.675Z,4.17
2022-11-24T20:57:33.574Z,4.17
2022-11-24T21:00:16.902Z,4.15
2022-11-24T21:02:44.794Z,4.13
2022-11-24T21:05:12.091Z,4.08
2022-11-24T21:07:39.609Z,4.00
2022-11-24T21:10:07.671Z,4.08
2022-11-24T21:12:35.082Z,4.04
2022-11-24T21:15:02.164Z,4.04
2022-11-24T21:17:31.926Z,4.11
2022-11-24T21:20:01.164Z,4.12
2022-11-24T21:22:28.927Z,4.10
2022-11-24T21:24:55.983Z,4.04
2022-11-24T21:27:23.634Z,4.02
2022-11-24T21:29:50.739Z,4.03
2022-11-24T21:32:18.140Z,4.04
2022-11-24T21:34:45.400Z,4.09
2022-11-24T21:37:12.752Z,4.07
2022-11-24T21:39:43.717Z,4.06
2022-11-24T21:42:11.248Z,4.11
2022-11-24T21:44:38.298Z,4.18
2022-11-24T21:47:05.676Z,4.19
2022-11-24T21:49:32.715Z,4.15
2022-11-24T21:52:00.091Z,4.21
2022-11-24T21:54:27.191Z,4.17
2022-11-24T21:56:54.627Z,4.11
2022-11-24T21:59:22.508Z,4.14
2022-11-24T22:01:50.082Z,4.14
2022-11-24T22:04:21.590Z,4.23
2022-11-24T22:06:49.122Z,4.23
2022-11-24T22:09:18.309Z,4.19
2022-11-24T22:11:46.789Z,4.20
2022-11-24T22:14:14.032Z,4.23
2022-11-24T22:16:51.950Z,4.25
2022-11-24T22:19:21.884Z,4.25
2022-11-24T22:21:50.097Z,4.25
2022-11-24T22:24:17.036Z,4.25
2022-11-24T22:26:44.266Z,4.23
2022-11-24T22:29:11.203Z,4.24
2022-11-24T22:31:38.776Z,4.26
2022-11-24T22:34:06.028Z,4.19
2022-11-24T22:36:36.788Z,4.19
2022-11-24T22:39:05.810Z,4.24
2022-11-24T22:41:35.237Z,4.27
2022-11-24T22:44:02.616Z,4.29
2022-11-24T22:46:31.189Z,4.29
2022-11-24T22:48:59.752Z,4.19
2022-11-24T22:51:35.405Z,4.21
2022-11-24T22:54:04.699Z,4.27
2022-11-24T22:56:37.910Z,4.21
2022-11-24T22:59:05.232Z,4.17
2022-11-24T23:01:36.605Z,4.23
2022-11-24T23:04:08.292Z,4.25
2022-11-24T23:06:35.948Z,4.17
2022-11-24T23:09:05.164Z,4.17
2022-11-24T23:11:38.498Z,4.23
2022-11-24T23:14:13.753Z,4.25
2022-11-24T23:16:41.832Z,4.29
2022-11-24T23:19:09.586Z,4.29
2022-11-24T23:21:40.678Z,4.16
2022-11-24T23:24:08.945Z,4.21
2022-11-24T23:26:38.669Z,4.23
2022-11-24T23:29:06.703Z,4.22
2022-11-24T23:31:34.070Z,4.21
2022-11-24T23:34:04.721Z,4.25
2022-11-24T23:36:33.456Z,4.24
2022-11-24T23:39:11.238Z,4.24
2022-11-24T23:41:38.971Z,4.23
2022-11-24T23:44:06.432Z,4.27
2022-11-24T23:46:34.020Z,4.31
2022-11-24T23:49:00.981Z,4.33
2022-11-24T23:51:31.968Z,4.34
2022-11-24T23:54:00.771Z,4.31
2022-11-24T23:56:33.724Z,4.32
2022-11-24T23:59:02.390Z,4.31
